Terminal Aerodrome Forecast
Issued by NWS Blacksburg, VA

Current Version | Previous Version | Graphics & Text | Print | Product List | Glossary On
Versions: 1 2 3 4 5 6 7 8 9 10 11 12 13 14 15 16 17 18 19 20 21 22 23 24 25 26 27 28 29 30
000
FTUS41 KRNK 191358 AAA
TAFBLF
TAF AMD
KBLF 191358Z 1914/2012 26006KT P6SM VCSH OVC007
     FM191600 29005KT P6SM VCSH OVC015
     FM191900 VRB03KT 6SM -SHRA OVC035
     FM200400 27003KT 5SM BR SCT004 BKN250=

USA.gov is the U.S. government's official web portal to all federal, state and local government web resources and services.